Last 24 Hours

Red Mountain

10 Minute Data | America/Los_Angeles
as of 5/3/26 2:17 PM PDT
Date & Time Temp (°F) Dew Pt (°F) RH (%) Wind Spd (mph) Wind Dir (°) Wind Gust (mph) Wind Gst Dir (°) Daily Max Temp (°F) Daily Min Temp (°F)
5/3/26 - 1410 47.8 47.8 100 8.1 SW | 231 12.4 WSW | 245 63.9 47.3
5/3/26 - 1400 47.6 47.6 100 9.3 SW | 232 13.8 SW | 230 63.9 47.3
5/3/26 - 1350 47.7 47.7 100 9.5 SW | 236 13.8 SW | 231 63.9 47.3
5/3/26 - 1340 47.9 47.9 100 10.0 WSW | 242 14.2 SW | 219 63.9 47.6
5/3/26 - 1330 48.1 48.1 100 9.6 SW | 231 13.2 SW | 232 63.9 47.8
5/3/26 - 1320 48.5 48.5 100 9.0 WSW | 242 12.6 SW | 236 63.9 47.8
5/3/26 - 1310 48.4 48.3 100 7.5 SW | 236 11.5 SW | 236 63.9 47.8
5/3/26 - 1300 48.2 48.2 100 8.2 WSW | 252 12.0 WSW | 242 63.9 47.8
5/3/26 - 1250 48.4 48.3 100 7.7 WSW | 258 10.9 WSW | 249 63.9 48.0
5/3/26 - 1240 48.6 48.5 100 6.4 W | 270 9.3 W | 266 63.9 48.0
5/3/26 - 1230 48.3 48.2 100 6.8 WNW | 283 9.6 WNW | 289 63.9 48.0
5/3/26 - 1220 48.6 48.4 100 8.2 WNW | 282 11.9 WNW | 292 63.9 48.0
5/3/26 - 1210 48.8 48.6 99 8.0 W | 273 12.8 WNW | 288 63.9 48.3
5/3/26 - 1200 48.8 48.6 99 6.9 W | 270 9.9 W | 266 63.9 48.4
5/3/26 - 1150 48.7 48.4 99 8.2 W | 263 10.4 WSW | 255 63.9 48.5
5/3/26 - 1140 48.8 48.5 99 9.1 W | 263 13.4 W | 267 63.9 48.5
5/3/26 - 1130 48.9 48.4 98 8.5 W | 259 12.0 WSW | 257 63.9 48.5
5/3/26 - 1120 49.2 48.5 97 8.4 WSW | 257 11.1 WSW | 255 63.9 48.7
5/3/26 - 1110 50.5 49.6 96 8.1 WSW | 258 11.7 WSW | 250 63.9 49.4
5/3/26 - 1100 51.2 49.9 95 5.8 WSW | 244 8.5 W | 259 63.9 49.8
5/3/26 - 1050 52.0 49.6 91 4.9 WSW | 246 8.0 SW | 234 63.9 49.8
5/3/26 - 1040 54.2 50.2 86 2.4 SE | 127 5.8 ESE | 107 63.9 49.8
5/3/26 - 1030 50.1 49.2 97 3.9 WSW | 255 8.3 W | 268 63.9 49.8
5/3/26 - 1020 51.0 49.0 93 5.8 W | 264 9.0 W | 264 63.9 49.9
5/3/26 - 1010 55.7 49.6 80 3.9 ESE | 107 8.5 E | 85 63.9 51.2
5/3/26 - 1000 56.4 49.7 78 4.2 E | 87 6.7 E | 95 63.9 51.2
5/3/26 - 0950 55.3 49.8 82 3.3 E | 81 6.6 ESE | 105 63.9 51.2
5/3/26 - 0940 53.0 49.3 87 2.8 NE | 34 5.6 N | 11 63.9 51.2
5/3/26 - 0930 52.1 49.2 90 4.1 NNW | 348 8.3 N | 354 63.9 51.2
5/3/26 - 0920 53.0 48.7 85 2.3 NW | 317 4.5 WNW | 287 63.9 51.6
5/3/26 - 0910 53.8 48.2 81 4.9 E | 96 8.3 E | 92 63.9 52.3
5/3/26 - 0900 54.5 48.8 81 2.6 E | 91 5.4 NE | 48 63.9 52.3
5/3/26 - 0850 56.5 47.7 72 2.5 NNE | 33 6.2 NE | 43 63.9 54.7
5/3/26 - 0840 57.4 46.3 67 3.2 ENE | 77 5.3 ENE | 72 63.9 55.1
5/3/26 - 0830 58.9 39.2 49 4.2 ESE | 109 6.0 E | 80 63.9 55.1
5/3/26 - 0820 59.8 29.7 32 5.3 SE | 129 6.4 SE | 129 63.9 55.1
5/3/26 - 0810 60.0 31.1 33 3.9 SE | 129 5.3 SE | 136 63.9 55.1
5/3/26 - 0800 60.5 26.9 28 6.2 SE | 130 8.2 SE | 137 63.9 55.1
5/3/26 - 0750 60.6 28.4 29 6.3 SE | 126 9.6 SE | 134 63.9 55.1
5/3/26 - 0740 59.3 28.7 31 4.8 ESE | 120 6.7 SE | 137 63.9 55.1
5/3/26 - 0730 57.7 34.9 43 3.6 E | 96 5.0 ESE | 105 63.9 55.1
5/3/26 - 0720 57.1 35.0 44 2.6 ESE | 104 5.3 NE | 48 63.9 55.1
5/3/26 - 0710 58.9 29.9 33 2.3 SE | 134 3.5 SE | 130 63.9 57.3
5/3/26 - 0700 58.3 32.0 37 0.8 SE | 127 2.2 SE | 142 63.9 57.3
5/3/26 - 0650 58.6 32.2 37 1.2 SE | 136 2.8 S | 169 63.9 57.3
5/3/26 - 0640 58.6 28.8 32 1.8 SSE | 147 3.0 S | 171 63.9 57.3
5/3/26 - 0630 59.5 27.4 29 2.2 E | 92 4.2 E | 89 63.9 57.3
5/3/26 - 0620 59.0 27.6 30 3.3 ENE | 78 4.2 ENE | 70 63.9 57.3
5/3/26 - 0610 59.5 28.6 31 3.9 ESE | 105 4.5 ESE | 102 63.9 57.3
5/3/26 - 0600 59.7 28.5 30 4.5 ESE | 111 5.7 SE | 135 63.9 57.3
5/3/26 - 0550 59.3 29.9 33 5.4 ESE | 105 6.1 ESE | 104 63.9 57.3
5/3/26 - 0540 59.2 30.6 34 5.0 ESE | 108 5.8 ESE | 112 63.9 57.3
5/3/26 - 0530 58.6 31.9 36 5.1 SE | 129 6.0 ESE | 122 63.9 57.3
5/3/26 - 0520 57.8 31.4 37 5.3 SSE | 158 5.7 SSE | 161 63.9 57.3
5/3/26 - 0510 58.6 30.6 34 5.3 SSE | 158 6.8 SSE | 164 63.9 57.3
5/3/26 - 0500 59.1 31.0 34 5.3 S | 180 8.0 S | 169 63.9 58.6
5/3/26 - 0450 59.9 29.8 32 7.0 S | 175 8.6 S | 171 63.9 59.2
5/3/26 - 0440 59.9 30.2 32 7.8 S | 176 9.0 S | 170 63.9 59.2
5/3/26 - 0430 59.4 27.2 29 7.0 S | 172 8.0 S | 175 63.9 59.2
5/3/26 - 0420 60.0 27.0 28 7.2 S | 170 7.9 SSE | 168 63.9 59.2
5/3/26 - 0410 60.0 27.1 28 5.9 S | 173 7.8 S | 171 63.9 59.2
5/3/26 - 0400 59.5 27.9 30 4.3 S | 175 5.6 S | 174 63.9 59.2
5/3/26 - 0350 60.9 27.5 28 5.7 SSE | 164 7.2 SSE | 166 63.9 59.8
5/3/26 - 0340 62.2 25.5 24 5.9 SSE | 168 7.5 SSE | 165 63.9 61.9
5/3/26 - 0330 62.3 25.4 24 4.7 S | 169 5.8 S | 172 63.9 62.2
5/3/26 - 0320 62.4 26.3 25 5.8 SSE | 148 7.5 SE | 143 63.9 62.3
5/3/26 - 0310 62.5 27.0 26 5.8 SE | 140 6.8 SE | 133 63.9 62.4
5/3/26 - 0300 62.8 27.0 25 4.8 SE | 146 5.9 SE | 140 63.9 62.6
5/3/26 - 0250 63.3 26.5 25 6.4 SE | 133 6.8 SE | 129 63.9 62.9
5/3/26 - 0240 63.2 26.7 25 5.4 SE | 125 6.1 ESE | 122 63.9 62.9
5/3/26 - 0230 63.2 25.8 24 2.6 SSE | 156 4.2 SE | 132 63.9 62.9
5/3/26 - 0220 63.4 25.7 24 3.6 SE | 134 4.6 SE | 130 63.9 62.9
5/3/26 - 0210 63.4 25.6 24 4.6 SE | 139 5.3 SE | 142 63.9 62.9
5/3/26 - 0200 63.7 25.4 23 4.6 SE | 130 5.7 SE | 125 63.9 62.9
5/3/26 - 0150 63.8 24.4 22 5.9 ESE | 122 6.6 SE | 124 63.9 62.9
5/3/26 - 0140 63.5 25.2 23 5.2 ESE | 119 6.6 SE | 124 63.8 62.9
5/3/26 - 0130 63.4 26.9 25 5.1 ESE | 120 5.6 ESE | 120 63.5 62.9
5/3/26 - 0120 63.2 26.6 25 5.6 ESE | 111 6.0 ESE | 110 63.3 62.9
5/3/26 - 0110 63.0 26.5 25 5.5 ESE | 109 6.0 ESE | 113 63.0 62.9
5/3/26 - 0100 62.8 26.3 25 5.0 ESE | 115 5.4 ESE | 112 72.0 62.2
5/3/26 - 0050 62.6 27.0 26 3.7 SE | 140 4.8 SE | 130 72.0 62.2
5/3/26 - 0040 63.0 27.3 26 3.9 SE | 138 4.7 SE | 136 72.0 62.2
5/3/26 - 0030 63.0 27.3 26 2.9 SE | 134 3.9 SE | 144 72.0 62.2
5/3/26 - 0020 62.8 27.7 26 2.6 ESE | 117 3.7 SE | 134 72.0 62.2
5/3/26 - 0010 62.4 28.0 27 1.8 SE | 146 2.4 SE | 139 72.0 62.2
5/3/26 - 0000 62.6 28.5 27 1.3 SW | 225 2.6 SW | 231 72.0 62.2
5/2/26 - 2350 63.2 27.5 26 2.5 SW | 217 3.9 SW | 220 72.0 62.2
5/2/26 - 2340 63.3 27.0 25 3.4 SW | 236 4.6 SW | 232 72.0 62.2
5/2/26 - 2330 63.5 27.0 25 3.2 WSW | 242 4.5 WSW | 238 72.0 62.2
5/2/26 - 2320 63.7 26.4 24 3.7 WSW | 246 5.6 WSW | 244 72.0 62.2
5/2/26 - 2310 63.8 25.6 23 4.1 SW | 234 5.4 WSW | 241 72.0 62.2
5/2/26 - 2300 63.9 25.8 23 3.5 WSW | 253 5.4 SW | 231 72.0 62.2
5/2/26 - 2250 64.2 25.4 23 5.8 SW | 216 7.2 SW | 223 72.0 62.2
5/2/26 - 2240 64.1 26.9 24 4.4 SSW | 200 5.7 SW | 215 72.0 62.2
5/2/26 - 2230 64.2 30.2 28 3.4 S | 186 4.7 SSW | 195 72.0 62.2
5/2/26 - 2220 64.1 31.6 30 3.4 S | 190 5.1 SSW | 194 72.0 62.2
5/2/26 - 2210 64.1 32.3 30 3.4 S | 191 5.5 SSW | 198 72.0 62.2
5/2/26 - 2200 64.3 32.0 30 3.4 S | 189 4.8 SSW | 193 72.0 62.2
5/2/26 - 2150 64.6 29.7 27 5.1 SSW | 196 7.3 SSW | 209 72.0 62.2
5/2/26 - 2140 64.8 29.6 27 3.4 S | 188 5.8 S | 171 72.0 62.2
5/2/26 - 2130 64.5 28.4 26 1.0 SSW | 196 4.5 SSW | 203 72.0 62.2
5/2/26 - 2120 64.5 26.2 23 0.8 SSE | 164 2.1 WSW | 238 72.0 62.2
5/2/26 - 2110 64.6 25.7 23 2.1 SSE | 164 3.0 SSE | 166 72.0 62.2
5/2/26 - 2100 65.0 25.1 22 2.8 SSE | 167 3.6 S | 170 72.0 62.2
5/2/26 - 2050 65.5 25.9 22 1.7 SW | 218 2.8 SSW | 210 72.0 62.2
5/2/26 - 2040 65.7 26.6 23 2.3 WSW | 241 3.0 W | 264 72.0 62.2
5/2/26 - 2030 65.7 27.3 23 3.4 WSW | 250 4.1 WSW | 244 72.0 62.2
5/2/26 - 2020 65.4 25.4 22 4.0 WSW | 242 5.3 WSW | 243 72.0 62.2
5/2/26 - 2010 65.1 26.4 23 5.0 WSW | 244 5.8 WSW | 244 72.0 62.2
5/2/26 - 2000 64.9 26.9 24 5.4 WSW | 243 7.2 WSW | 245 72.0 62.2
5/2/26 - 1950 64.5 29.7 27 6.0 WSW | 249 7.6 WSW | 257 72.0 62.2
5/2/26 - 1940 64.7 30.6 28 7.2 WSW | 240 9.3 WSW | 239 72.0 62.2
5/2/26 - 1930 64.9 32.2 29 6.1 WSW | 241 8.6 SW | 228 72.0 62.2
5/2/26 - 1920 65.2 31.4 28 7.6 WSW | 253 10.2 W | 273 72.0 62.2
5/2/26 - 1910 65.5 32.4 29 7.0 WSW | 250 9.1 W | 270 72.0 62.2
5/2/26 - 1900 66.3 33.4 29 8.2 WSW | 238 10.7 SW | 235 72.0 62.2
5/2/26 - 1850 67.3 33.6 29 8.2 SW | 233 12.9 SW | 235 72.0 62.2
5/2/26 - 1840 67.0 34.2 30 9.5 SW | 233 14.4 WSW | 237 72.0 62.2
5/2/26 - 1830 66.7 33.3 29 12.1 SW | 236 16.4 SW | 233 72.0 62.2
5/2/26 - 1820 66.6 34.3 30 13.8 WSW | 240 18.0 WSW | 238 72.0 62.2
5/2/26 - 1810 66.6 37.0 34 13.8 WSW | 239 18.8 WSW | 244 72.0 62.2
5/2/26 - 1800 67.0 39.5 37 12.5 WSW | 239 18.3 WSW | 248 72.0 62.2
5/2/26 - 1750 66.9 41.3 39 11.8 SW | 236 17.0 SW | 228 72.0 62.2
5/2/26 - 1740 66.4 42.3 42 10.9 WSW | 237 15.6 SW | 214 72.0 62.2
5/2/26 - 1730 66.6 45.2 46 12.2 WSW | 238 17.2 SW | 221 72.0 62.2
5/2/26 - 1720 66.8 45.7 46 12.5 WSW | 238 18.8 W | 262 72.0 62.2
5/2/26 - 1710 68.8 42.0 38 12.2 WSW | 238 18.3 WSW | 248 72.0 62.2
5/2/26 - 1700 68.8 42.0 38 11.7 SW | 236 17.8 SW | 228 72.0 62.2
5/2/26 - 1650 69.9 41.2 35 10.6 SW | 235 16.4 W | 274 72.0 62.2
5/2/26 - 1640 69.6 40.1 34 11.0 WSW | 237 21.8 SW | 223 72.0 62.2
5/2/26 - 1630 69.1 39.2 33 12.7 SW | 234 21.1 WSW | 249 72.0 62.2
5/2/26 - 1620 69.3 38.2 32 13.2 WSW | 238 18.6 WSW | 239 72.0 62.2
5/2/26 - 1610 69.4 38.5 32 12.5 WSW | 238 18.6 SW | 228 72.0 62.2
5/2/26 - 1600 69.2 40.0 35 14.2 SW | 234 22.1 WSW | 250 72.0 62.2
5/2/26 - 1550 69.0 40.5 35 15.1 WSW | 238 22.8 SW | 233 72.0 62.2
5/2/26 - 1540 70.4 42.1 36 10.8 SW | 236 20.4 WSW | 239 72.0 62.2
5/2/26 - 1530 69.5 42.1 37 13.4 WSW | 237 21.1 SW | 228 72.0 62.2
5/2/26 - 1520 70.2 43.1 38 13.8 WSW | 247 21.0 WSW | 252 72.0 62.2
5/2/26 - 1510 69.8 40.3 34 14.4 WSW | 246 22.3 WSW | 253 72.0 62.2
5/2/26 - 1500 71.0 40.5 33 13.0 SW | 235 21.3 WSW | 249 72.0 62.2
5/2/26 - 1450 70.1 39.8 33 14.4 WSW | 244 20.5 W | 260 71.6 62.2
5/2/26 - 1440 70.5 40.9 34 12.1 W | 269 19.1 W | 267 71.6 62.2
5/2/26 - 1430 70.0 42.4 37 13.4 WNW | 282 19.0 WNW | 282 71.6 62.2
5/2/26 - 1420 69.1 43.0 39 12.5 W | 279 18.0 W | 268 71.6 62.2
5/2/26 - 1410 69.1 43.6 40 13.0 W | 269 18.8 WSW | 246 71.6 62.2
Max 71.0 50.2 100 15.1 - 22.8 - 72.0 62.9
Avg 60.9 35.5 45 6.4 - 9.3 - - -
Min 47.6 24.4 22 0.8 - 2.1 - 63.0 47.3